createdAt,value
2019-02-22T00:00:36.996Z,95610.02
2019-02-22T00:03:03.645Z,95600.66
2019-02-22T00:05:30.317Z,95599.01
2019-02-22T00:07:57.031Z,95600.66
2019-02-22T00:10:26.738Z,95599.87
2019-02-22T00:12:53.432Z,95601.03
2019-02-22T00:15:20.120Z,95597.49
2019-02-22T00:17:46.777Z,95598.41
2019-02-22T00:20:13.431Z,95600.30
2019-02-22T00:22:40.194Z,95596.25
2019-02-22T00:25:06.837Z,95597.27
2019-02-22T00:27:33.493Z,95583.22
2019-02-22T00:30:00.396Z,95574.02
2019-02-22T00:32:26.857Z,95578.06
2019-02-22T00:34:53.663Z,95568.55
2019-02-22T00:37:23.233Z,95564.63
2019-02-22T00:39:49.827Z,95560.08
2019-02-22T00:42:16.486Z,95563.49
2019-02-22T00:44:43.144Z,95555.67
2019-02-22T00:47:09.807Z,95553.27
2019-02-22T00:49:36.463Z,95552.98
2019-02-22T00:52:04.351Z,95549.37
2019-02-22T00:54:29.807Z,95542.14
2019-02-22T00:56:58.782Z,95536.95
2019-02-22T00:59:23.108Z,95533.31
2019-02-22T01:01:49.774Z,95531.29
2019-02-22T01:04:16.487Z,95526.23
2019-02-22T01:06:43.148Z,95527.87
2019-02-22T01:09:09.796Z,95531.07
2019-02-22T01:11:36.494Z,95519.56
2019-02-22T01:14:03.162Z,95521.84
2019-02-22T01:16:29.852Z,95522.75
2019-02-22T01:18:56.547Z,95524.46
2019-02-22T01:21:23.257Z,95518.80
2019-02-22T01:23:49.923Z,95517.66
2019-02-22T01:26:16.624Z,95508.46
2019-02-22T01:28:43.328Z,95500.59
2019-02-22T01:31:09.976Z,95499.20
2019-02-22T01:33:36.642Z,95498.31
2019-02-22T01:36:03.295Z,95500.74
2019-02-22T01:38:29.999Z,95493.91
2019-02-22T01:40:56.655Z,95488.47
2019-02-22T01:43:23.394Z,95492.78
2019-02-22T01:45:50.063Z,95484.55
2019-02-22T01:48:16.727Z,95490.13
2019-02-22T01:50:43.447Z,95482.94
2019-02-22T01:53:10.105Z,95482.97
2019-02-22T01:55:36.769Z,95476.88
2019-02-22T01:58:03.437Z,95476.11
2019-02-22T02:00:30.105Z,95467.14
2019-02-22T02:02:56.758Z,95464.00
2019-02-22T02:05:23.448Z,95463.88
2019-02-22T02:07:50.094Z,95463.63
2019-02-22T02:10:16.799Z,95466.66
2019-02-22T02:12:43.456Z,95449.49
2019-02-22T02:15:10.151Z,95446.94
2019-02-22T02:17:36.801Z,95439.76
2019-02-22T02:20:03.608Z,95436.72
2019-02-22T02:22:30.268Z,95437.07
2019-02-22T02:24:56.911Z,95439.34
2019-02-22T02:27:23.603Z,95436.31
2019-02-22T02:29:50.256Z,95432.05
2019-02-22T02:32:16.973Z,95429.27
2019-02-22T02:34:46.450Z,95423.45
2019-02-22T02:37:13.104Z,95428.00
2019-02-22T02:39:39.805Z,95419.11
2019-02-22T02:42:06.457Z,95419.27
2019-02-22T02:44:33.132Z,95418.64
2019-02-22T02:46:59.831Z,95412.28
2019-02-22T02:49:26.489Z,95417.25
2019-02-22T02:51:53.227Z,95413.08
2019-02-22T02:54:19.842Z,95415.20
2019-02-22T02:56:46.496Z,95413.08
2019-02-22T02:59:13.213Z,95402.84
2019-02-22T03:01:39.875Z,95405.49
2019-02-22T03:04:06.547Z,95404.36
2019-02-22T03:06:33.243Z,95399.80
2019-02-22T03:08:59.915Z,95392.12
2019-02-22T03:11:26.577Z,95396.64
2019-02-22T03:13:53.351Z,95390.57
2019-02-22T03:16:19.995Z,95389.18
2019-02-22T03:18:46.664Z,95386.17
2019-02-22T03:21:13.360Z,95382.38
2019-02-22T03:23:40.013Z,95379.06
2019-02-22T03:26:06.724Z,95379.35
2019-02-22T03:28:33.386Z,95368.35
2019-02-22T03:31:00.086Z,95371.01
2019-02-22T03:33:26.765Z,95365.41
2019-02-22T03:35:53.406Z,95365.83
2019-02-22T03:38:20.053Z,95354.70
2019-02-22T03:40:46.741Z,95352.16
2019-02-22T03:43:13.390Z,95357.10
2019-02-22T03:45:40.087Z,95346.73
2019-02-22T03:48:06.766Z,95346.77
2019-02-22T03:50:33.427Z,95345.72
2019-02-22T03:53:00.076Z,95345.50
2019-02-22T03:55:26.718Z,95346.89
2019-02-22T03:57:53.393Z,95346.23
2019-02-22T04:00:20.054Z,95338.55
2019-02-22T04:02:46.776Z,95338.42
2019-02-22T04:05:13.422Z,95336.87
2019-02-22T04:07:40.111Z,95333.33
2019-02-22T04:10:06.770Z,95334.58
2019-02-22T04:12:33.439Z,95328.72
2019-02-22T04:15:00.169Z,95326.27
2019-02-22T04:17:26.725Z,95328.50
2019-02-22T04:19:53.386Z,95329.78
2019-02-22T04:22:20.081Z,95323.63
2019-02-22T04:24:46.695Z,95314.58
2019-02-22T04:27:13.368Z,95302.12
2019-02-22T04:29:40.077Z,95293.35
2019-02-22T04:32:06.745Z,95297.59
2019-02-22T04:34:33.412Z,95291.13
2019-02-22T04:37:00.076Z,95292.39
2019-02-22T04:39:26.732Z,95288.55
2019-02-22T04:41:58.028Z,95287.58
2019-02-22T04:44:20.119Z,95278.47
2019-02-22T04:46:46.771Z,95281.00
2019-02-22T04:49:13.414Z,95278.56
2019-02-22T04:51:40.120Z,95285.70
2019-02-22T04:54:06.768Z,95287.80
2019-02-22T04:56:33.477Z,95279.96
2019-02-22T04:59:00.151Z,95280.39
2019-02-22T05:01:26.811Z,95277.45
2019-02-22T05:03:53.479Z,95274.53
2019-02-22T05:06:20.166Z,95279.47
2019-02-22T05:08:46.850Z,95270.78
2019-02-22T05:11:13.530Z,95270.53
2019-02-22T05:13:40.183Z,95271.08
2019-02-22T05:16:06.859Z,95272.66
2019-02-22T05:18:34.103Z,95270.79
2019-02-22T05:21:00.754Z,95271.80
2019-02-22T05:23:27.434Z,95269.44
2019-02-22T05:25:54.084Z,95272.69
2019-02-22T05:28:20.740Z,95267.20
2019-02-22T05:30:47.401Z,95262.48
2019-02-22T05:33:14.045Z,95273.19
2019-02-22T05:35:40.693Z,95272.73
2019-02-22T05:38:07.365Z,95268.64
2019-02-22T05:40:34.025Z,95271.59
2019-02-22T05:43:00.669Z,95264.62
2019-02-22T05:45:27.346Z,95262.23
2019-02-22T05:47:54.009Z,95267.03
2019-02-22T05:50:20.652Z,95252.97
2019-02-22T05:52:47.315Z,95258.00
2019-02-22T05:55:14.008Z,95260.50
2019-02-22T05:57:40.681Z,95255.31
2019-02-22T06:00:07.359Z,95251.27
2019-02-22T06:02:34.266Z,95259.11
2019-02-22T06:05:00.781Z,95252.45
2019-02-22T06:07:27.438Z,95249.66
2019-02-22T06:09:54.092Z,95247.80
2019-02-22T06:12:20.743Z,95260.16
2019-02-22T06:14:47.403Z,95248.93
2019-02-22T06:17:14.901Z,95248.09
2019-02-22T06:19:40.854Z,95254.67
2019-02-22T06:22:07.503Z,95241.10
2019-02-22T06:24:34.169Z,95242.99
2019-02-22T06:27:00.963Z,95245.53
2019-02-22T06:29:27.636Z,95240.50
2019-02-22T06:31:54.317Z,95235.94
2019-02-22T06:34:20.987Z,95236.22
2019-02-22T06:36:47.656Z,95239.66
2019-02-22T06:39:14.456Z,95230.91
2019-02-22T06:41:41.133Z,95237.03
2019-02-22T06:44:07.775Z,95238.05
2019-02-22T06:46:34.454Z,95228.58
2019-02-22T06:49:01.211Z,95229.66
2019-02-22T06:51:27.867Z,95230.16
2019-02-22T06:53:54.539Z,95232.86
2019-02-22T06:56:24.123Z,95218.19
2019-02-22T06:58:47.972Z,95215.81
2019-02-22T07:01:14.647Z,95211.03
2019-02-22T07:03:41.325Z,95215.38
2019-02-22T07:06:08.068Z,95207.06
2019-02-22T07:08:34.690Z,95198.87
2019-02-22T07:11:01.352Z,95191.31
2019-02-22T07:13:28.046Z,95186.69
2019-02-22T07:15:54.687Z,95193.47
2019-02-22T07:18:21.477Z,95178.53
2019-02-22T07:20:48.150Z,95177.20
2019-02-22T07:23:14.826Z,95182.01
2019-02-22T07:25:41.525Z,95179.11
2019-02-22T07:28:08.243Z,95178.28
2019-02-22T07:30:34.901Z,95175.68
2019-02-22T07:33:01.558Z,95174.63
2019-02-22T07:35:28.244Z,95178.52
2019-02-22T07:37:54.917Z,95164.67
2019-02-22T07:40:21.742Z,95178.35
2019-02-22T07:42:48.411Z,95176.23
2019-02-22T07:45:15.319Z,95163.39
2019-02-22T07:47:42.026Z,95162.45
2019-02-22T07:50:08.695Z,95162.20
2019-02-22T07:52:35.368Z,95162.23
2019-02-22T07:55:02.046Z,95153.02
2019-02-22T07:57:28.728Z,95160.59
2019-02-22T07:59:55.430Z,95166.91
2019-02-22T08:02:22.187Z,95156.96
2019-02-22T08:04:48.845Z,95154.63
2019-02-22T08:07:15.667Z,95157.06
2019-02-22T08:09:42.322Z,95161.58
2019-02-22T08:12:08.987Z,95147.37
2019-02-22T08:14:35.647Z,95149.23
2019-02-22T08:17:02.315Z,95147.38
2019-02-22T08:19:28.980Z,95145.75
2019-02-22T08:21:58.247Z,95136.12
2019-02-22T08:24:26.086Z,95134.30
2019-02-22T08:26:51.569Z,95128.16
2019-02-22T08:29:18.280Z,95126.58
2019-02-22T08:31:45.011Z,95122.55
2019-02-22T08:34:11.669Z,95121.28
2019-02-22T08:36:38.857Z,95118.22
2019-02-22T08:39:05.533Z,95116.71
2019-02-22T08:41:32.299Z,95114.30
2019-02-22T08:43:58.948Z,95117.47
2019-02-22T08:46:25.657Z,95111.59
2019-02-22T08:48:52.406Z,95106.84
2019-02-22T08:51:19.055Z,95099.56
2019-02-22T08:53:45.719Z,95099.18
2019-02-22T08:56:12.779Z,95096.08
2019-02-22T08:58:39.518Z,95096.47
2019-02-22T09:01:06.206Z,95091.91
2019-02-22T09:03:32.939Z,95084.83
2019-02-22T09:05:59.621Z,95082.42
2019-02-22T09:08:26.341Z,95085.75
2019-02-22T09:11:00.435Z,95086.83
2019-02-22T09:13:19.696Z,95086.72
2019-02-22T09:15:46.360Z,95086.72
2019-02-22T09:18:13.098Z,95082.66
2019-02-22T09:20:39.760Z,95076.96
2019-02-22T09:23:07.573Z,95069.35
2019-02-22T09:25:33.111Z,95075.96
2019-02-22T09:27:59.826Z,95067.33
2019-02-22T09:30:26.513Z,95073.97
2019-02-22T09:32:53.320Z,95071.04
2019-02-22T09:35:19.967Z,95068.66
2019-02-22T09:37:46.627Z,95069.91
2019-02-22T09:40:14.838Z,95069.67
2019-02-22T09:42:40.185Z,95061.75
2019-02-22T09:45:06.861Z,95064.11
2019-02-22T09:47:33.537Z,95064.63
2019-02-22T09:50:00.362Z,95066.75
2019-02-22T09:52:26.951Z,95058.02
2019-02-22T09:54:53.755Z,95055.43
2019-02-22T09:57:20.506Z,95057.03
2019-02-22T09:59:47.175Z,95058.28
2019-02-22T10:02:13.862Z,95055.55
2019-02-22T10:04:40.519Z,95053.92
2019-02-22T10:07:07.171Z,95049.98
2019-02-22T10:09:33.821Z,95047.92
2019-02-22T10:12:00.521Z,95036.72
2019-02-22T10:14:28.562Z,95036.52
2019-02-22T10:16:53.882Z,95032.22
2019-02-22T10:19:20.583Z,95027.98
2019-02-22T10:21:47.259Z,95016.53
2019-02-22T10:24:13.959Z,95008.00
2019-02-22T10:26:40.620Z,95012.97
2019-02-22T10:29:07.282Z,95005.13
2019-02-22T10:31:34.357Z,95004.92
2019-02-22T10:34:01.079Z,95005.81
2019-02-22T10:36:27.745Z,94993.99
2019-02-22T10:38:54.423Z,94993.47
2019-02-22T10:41:21.114Z,94987.72
2019-02-22T10:43:48.053Z,94982.88
2019-02-22T10:46:14.512Z,94983.70
2019-02-22T10:48:41.181Z,94981.27
2019-02-22T10:51:08.241Z,94972.55
2019-02-22T10:53:34.920Z,94966.02
2019-02-22T10:56:01.579Z,94965.66
2019-02-22T10:58:28.393Z,94956.10
2019-02-22T11:00:55.502Z,94960.02
2019-02-22T11:03:22.205Z,94962.22
2019-02-22T11:05:48.938Z,94954.00
2019-02-22T11:08:15.666Z,94956.74
2019-02-22T11:10:43.426Z,94953.61
2019-02-22T11:13:10.101Z,94952.02
2019-02-22T11:15:36.823Z,94943.95
2019-02-22T11:18:03.474Z,94940.31
2019-02-22T11:20:30.243Z,94938.78
2019-02-22T11:22:56.906Z,94945.58
2019-02-22T11:25:23.581Z,94942.66
2019-02-22T11:27:50.389Z,94937.22
2019-02-22T11:30:17.074Z,94932.35
2019-02-22T11:32:43.737Z,94924.70
2019-02-22T11:35:10.424Z,94929.32
2019-02-22T11:37:37.126Z,94932.64
2019-02-22T11:40:03.816Z,94920.13
2019-02-22T11:42:30.533Z,94925.25
2019-02-22T11:44:57.366Z,94921.21
2019-02-22T11:47:24.070Z,94915.55
2019-02-22T11:49:50.851Z,94915.55
2019-02-22T11:52:17.576Z,94914.80
2019-02-22T11:54:44.311Z,94896.59
2019-02-22T11:57:11.019Z,94900.08
2019-02-22T11:59:37.666Z,94900.28
2019-02-22T12:02:04.384Z,94894.91
2019-02-22T12:04:31.139Z,94891.31
2019-02-22T12:06:57.966Z,94893.87
2019-02-22T12:09:24.681Z,94882.34
2019-02-22T12:11:52.550Z,94877.71
2019-02-22T12:14:19.204Z,94880.69
2019-02-22T12:16:46.004Z,94866.78
2019-02-22T12:19:12.898Z,94874.65
2019-02-22T12:21:39.600Z,94871.56
2019-02-22T12:24:06.312Z,94869.83
2019-02-22T12:26:32.990Z,94863.77
2019-02-22T12:28:59.727Z,94858.49
2019-02-22T12:31:26.385Z,94862.06
2019-02-22T12:33:53.185Z,94855.55
2019-02-22T12:36:19.891Z,94860.23
2019-02-22T12:38:46.551Z,94853.81
2019-02-22T12:41:13.633Z,94848.21
2019-02-22T12:43:40.311Z,94852.58
2019-02-22T12:46:07.094Z,94854.83
2019-02-22T12:48:33.757Z,94856.64
2019-02-22T12:51:00.423Z,94854.01
2019-02-22T12:53:27.094Z,94851.83
2019-02-22T12:55:53.805Z,94853.02
2019-02-22T12:58:20.604Z,94853.44
2019-02-22T13:00:47.459Z,94853.06
2019-02-22T13:03:14.175Z,94856.20
2019-02-22T13:05:40.921Z,94848.77
2019-02-22T13:08:07.596Z,94849.64
2019-02-22T13:10:34.305Z,94853.38
2019-02-22T13:13:00.989Z,94849.93
2019-02-22T13:15:28.330Z,94853.81
2019-02-22T13:17:55.547Z,94843.91
2019-02-22T13:20:22.243Z,94845.68
2019-02-22T13:22:48.909Z,94844.37
2019-02-22T13:25:15.612Z,94841.02
2019-02-22T13:27:42.266Z,94847.75
2019-02-22T13:30:09.004Z,94846.14
2019-02-22T13:32:35.696Z,94842.70
2019-02-22T13:35:02.362Z,94842.30
2019-02-22T13:37:29.040Z,94841.05
2019-02-22T13:39:55.711Z,94842.29
2019-02-22T13:42:22.401Z,94840.98
2019-02-22T13:44:49.081Z,94838.67
2019-02-22T13:47:15.763Z,94837.62
2019-02-22T13:49:43.584Z,94829.45
2019-02-22T13:52:10.268Z,94824.67
2019-02-22T13:54:37.412Z,94838.53
2019-02-22T13:57:04.097Z,94831.15
2019-02-22T13:59:30.845Z,94835.28
2019-02-22T14:01:57.498Z,94836.50
2019-02-22T14:04:24.171Z,94831.14
2019-02-22T14:06:50.942Z,94826.06
2019-02-22T14:09:17.650Z,94828.70
2019-02-22T14:11:44.299Z,94827.04
2019-02-22T14:14:11.043Z,94834.34
2019-02-22T14:16:37.769Z,94831.07
2019-02-22T14:19:04.543Z,94831.78
2019-02-22T14:21:31.210Z,94831.03
2019-02-22T14:23:58.306Z,94838.45
2019-02-22T14:26:25.016Z,94831.11
2019-02-22T14:28:51.756Z,94832.38
2019-02-22T14:31:18.423Z,94831.07
2019-02-22T14:33:45.113Z,94835.44
2019-02-22T14:36:11.794Z,94833.78
2019-02-22T14:38:38.483Z,94835.32
2019-02-22T14:41:05.597Z,94831.19
2019-02-22T14:43:33.299Z,94830.09
2019-02-22T14:45:59.949Z,94829.03
2019-02-22T14:48:26.691Z,94826.25
2019-02-22T14:50:53.508Z,94823.73
2019-02-22T14:53:20.205Z,94813.13
2019-02-22T14:55:46.884Z,94817.42
2019-02-22T14:58:13.628Z,94822.90
2019-02-22T15:00:40.253Z,94819.92
2019-02-22T15:03:06.906Z,94824.10
2019-02-22T15:05:33.599Z,94823.54
2019-02-22T15:08:00.380Z,94822.56
2019-02-22T15:10:27.053Z,94819.88
2019-02-22T15:12:53.709Z,94826.21
2019-02-22T15:15:21.460Z,94824.81
2019-02-22T15:17:48.151Z,94831.19
2019-02-22T15:20:14.833Z,94833.44
2019-02-22T15:22:41.549Z,94825.38
2019-02-22T15:25:08.224Z,94827.45
2019-02-22T15:27:36.309Z,94831.79
2019-02-22T15:30:01.648Z,94826.88
2019-02-22T15:32:28.279Z,94823.72
2019-02-22T15:34:54.952Z,94824.94
2019-02-22T15:37:21.680Z,94819.77
2019-02-22T15:39:49.826Z,94818.48
2019-02-22T15:42:15.012Z,94823.08
2019-02-22T15:44:41.693Z,94819.32
2019-02-22T15:47:12.010Z,94820.86
2019-02-22T15:49:36.043Z,94821.69
2019-02-22T15:52:02.704Z,94827.18
2019-02-22T15:54:29.415Z,94827.48
2019-02-22T15:56:56.061Z,94833.77
2019-02-22T15:59:22.720Z,94833.25
2019-02-22T16:01:55.601Z,94833.28
2019-02-22T16:04:16.046Z,94831.17
2019-02-22T16:06:42.704Z,94834.76
2019-02-22T16:09:09.399Z,94835.44
2019-02-22T16:11:36.149Z,94833.03
2019-02-22T16:14:02.824Z,94840.29
2019-02-22T16:16:29.525Z,94841.59
2019-02-22T16:18:56.228Z,94839.56
2019-02-22T16:21:22.918Z,94846.53
2019-02-22T16:23:49.616Z,94843.89
2019-02-22T16:26:16.268Z,94847.81
2019-02-22T16:28:42.933Z,94844.08
2019-02-22T16:31:09.697Z,94854.36
2019-02-22T16:33:36.438Z,94854.94
2019-02-22T16:36:03.170Z,94853.95
2019-02-22T16:38:29.883Z,94856.97
2019-02-22T16:40:56.564Z,94857.05
2019-02-22T16:43:23.287Z,94859.04
2019-02-22T16:45:50.034Z,94856.13
2019-02-22T16:48:16.711Z,94862.45
2019-02-22T16:50:43.391Z,94856.83
2019-02-22T16:53:10.137Z,94865.88
2019-02-22T16:55:36.836Z,94871.36
2019-02-22T16:58:03.508Z,94866.31
2019-02-22T17:00:30.306Z,94863.91
2019-02-22T17:02:58.621Z,94863.60
2019-02-22T17:05:23.679Z,94877.61
2019-02-22T17:07:50.342Z,94879.63
2019-02-22T17:10:17.164Z,94876.66
2019-02-22T17:12:43.851Z,94873.17
2019-02-22T17:15:10.586Z,94875.97
2019-02-22T17:17:37.264Z,94874.55
2019-02-22T17:20:03.996Z,94875.45
2019-02-22T17:22:30.660Z,94885.33
2019-02-22T17:24:57.376Z,94876.05
2019-02-22T17:27:24.024Z,94871.80
2019-02-22T17:29:50.672Z,94867.41
2019-02-22T17:32:17.341Z,94872.09
2019-02-22T17:34:45.570Z,94875.16
2019-02-22T17:37:10.678Z,94871.42
2019-02-22T17:39:37.338Z,94877.04
2019-02-22T17:42:04.005Z,94880.33
2019-02-22T17:44:30.646Z,94882.19
2019-02-22T17:46:58.077Z,94881.28
2019-02-22T17:49:23.993Z,94872.52
2019-02-22T17:51:50.700Z,94866.70
2019-02-22T17:54:17.462Z,94870.80
2019-02-22T17:56:44.343Z,94869.15
2019-02-22T17:59:10.980Z,94872.95
2019-02-22T18:01:37.631Z,94867.48
2019-02-22T18:04:04.360Z,94868.30
2019-02-22T18:06:31.018Z,94865.46
2019-02-22T18:08:57.699Z,94866.03
2019-02-22T18:11:24.367Z,94862.56
2019-02-22T18:13:51.037Z,94859.95
2019-02-22T18:16:17.749Z,94862.80
2019-02-22T18:18:44.470Z,94862.63
2019-02-22T18:21:11.084Z,94857.39
2019-02-22T18:23:37.738Z,94853.78
2019-02-22T18:26:04.450Z,94851.77
2019-02-22T18:28:31.116Z,94850.05
2019-02-22T18:30:57.793Z,94853.65
2019-02-22T18:33:24.459Z,94853.91
2019-02-22T18:35:51.150Z,94852.38
2019-02-22T18:38:17.815Z,94852.63
2019-02-22T18:40:44.524Z,94843.04
2019-02-22T18:43:11.166Z,94845.58
2019-02-22T18:45:37.835Z,94843.20
2019-02-22T18:48:04.543Z,94841.92
2019-02-22T18:50:31.179Z,94840.16
2019-02-22T18:52:57.892Z,94844.86
2019-02-22T18:55:24.592Z,94834.05
2019-02-22T18:57:51.270Z,94833.18
2019-02-22T19:00:17.939Z,94831.33
2019-02-22T19:02:44.637Z,94828.31
2019-02-22T19:05:11.332Z,94825.91
2019-02-22T19:07:37.990Z,94829.33
2019-02-22T19:10:04.638Z,94830.46
2019-02-22T19:12:31.341Z,94834.47
2019-02-22T19:14:57.995Z,94823.83
2019-02-22T19:17:30.347Z,94827.25
2019-02-22T19:19:51.303Z,94828.64
2019-02-22T19:22:17.986Z,94829.77
2019-02-22T19:24:44.653Z,94827.52
2019-02-22T19:27:11.356Z,94833.61
2019-02-22T19:29:37.998Z,94824.73
2019-02-22T19:32:04.644Z,94826.88
2019-02-22T19:34:31.311Z,94821.43
2019-02-22T19:36:57.972Z,94824.59
2019-02-22T19:39:24.637Z,94820.30
2019-02-22T19:41:51.286Z,94820.19
2019-02-22T19:44:17.961Z,94820.19
2019-02-22T19:46:44.607Z,94826.57
2019-02-22T19:49:11.270Z,94829.66
2019-02-22T19:51:37.929Z,94833.34
2019-02-22T19:54:04.595Z,94829.17
2019-02-22T19:56:31.255Z,94822.39
2019-02-22T19:58:58.021Z,94825.70
2019-02-22T20:01:24.717Z,94822.98
2019-02-22T20:03:51.467Z,94822.45
2019-02-22T20:06:18.157Z,94825.30
2019-02-22T20:08:44.808Z,94815.01
2019-02-22T20:11:11.463Z,94813.13
2019-02-22T20:13:38.153Z,94816.66
2019-02-22T20:16:04.810Z,94809.63
2019-02-22T20:18:31.508Z,94811.53
2019-02-22T20:20:58.160Z,94803.71
2019-02-22T20:23:26.407Z,94801.97
2019-02-22T20:25:52.750Z,94801.97
2019-02-22T20:28:18.155Z,94801.97
2019-02-22T20:30:44.812Z,94800.84
2019-02-22T20:33:11.471Z,94805.16
2019-02-22T20:35:38.144Z,94799.86
2019-02-22T20:38:04.813Z,94805.91
2019-02-22T20:40:31.511Z,94802.82
2019-02-22T20:42:58.241Z,94799.92
2019-02-22T20:45:27.788Z,94802.94
2019-02-22T20:48:04.533Z,94807.11
2019-02-22T20:50:21.251Z,94805.48
2019-02-22T20:52:48.074Z,94803.20
2019-02-22T20:55:14.688Z,94802.94
2019-02-22T20:57:41.382Z,94800.85
2019-02-22T21:00:08.033Z,94804.27
2019-02-22T21:02:34.690Z,94799.34
2019-02-22T21:05:01.398Z,94795.55
2019-02-22T21:07:28.100Z,94793.03
2019-02-22T21:09:54.757Z,94802.39
2019-02-22T21:12:21.411Z,94794.05
2019-02-22T21:14:48.065Z,94798.97
2019-02-22T21:17:14.736Z,94797.27
2019-02-22T21:19:41.391Z,94795.50
2019-02-22T21:22:08.046Z,94797.00
2019-02-22T21:24:34.715Z,94791.70
2019-02-22T21:27:01.369Z,94793.84
2019-02-22T21:29:28.084Z,94793.84
2019-02-22T21:31:54.744Z,94796.34
2019-02-22T21:34:21.403Z,94790.13
2019-02-22T21:36:48.078Z,94788.42
2019-02-22T21:39:14.764Z,94790.74
2019-02-22T21:41:41.489Z,94795.27
2019-02-22T21:44:08.198Z,94790.31
2019-02-22T21:46:34.861Z,94796.57
2019-02-22T21:49:01.522Z,94800.83
2019-02-22T21:51:28.227Z,94793.47
2019-02-22T21:53:54.914Z,94801.00
2019-02-22T21:56:21.589Z,94794.11
2019-02-22T21:58:48.954Z,94797.96
2019-02-22T22:01:14.965Z,94797.70
2019-02-22T22:03:41.684Z,94792.17
2019-02-22T22:06:08.357Z,94792.92
2019-02-22T22:08:35.029Z,94792.55
2019-02-22T22:11:01.684Z,94797.59
2019-02-22T22:13:28.403Z,94795.87
2019-02-22T22:15:55.165Z,94799.61
2019-02-22T22:18:21.889Z,94798.80
2019-02-22T22:20:48.556Z,94808.11
2019-02-22T22:23:15.226Z,94797.97
2019-02-22T22:25:42.011Z,94803.53
2019-02-22T22:28:08.763Z,94808.48
2019-02-22T22:30:35.433Z,94808.66
2019-02-22T22:33:02.105Z,94817.20
2019-02-22T22:35:28.769Z,94825.11
2019-02-22T22:37:55.478Z,94825.23
2019-02-22T22:40:22.143Z,94835.45
2019-02-22T22:42:48.857Z,94838.67
2019-02-22T22:45:15.559Z,94841.92
2019-02-22T22:47:42.232Z,94856.78
2019-02-22T22:50:08.909Z,94852.66
2019-02-22T22:52:35.639Z,94865.05
2019-02-22T22:55:02.350Z,94872.88
2019-02-22T22:57:29.018Z,94877.42
2019-02-22T22:59:55.755Z,94883.94
2019-02-22T23:02:22.441Z,94894.83
2019-02-22T23:04:49.159Z,94904.64
2019-02-22T23:07:15.832Z,94925.77
2019-02-22T23:09:42.517Z,94934.91
2019-02-22T23:12:09.232Z,94954.06
2019-02-22T23:14:35.902Z,94982.27
2019-02-22T23:17:02.644Z,94997.49
2019-02-22T23:19:29.297Z,95014.88
2019-02-22T23:21:56.052Z,95026.44
2019-02-22T23:24:22.728Z,95040.98
2019-02-22T23:26:49.409Z,95046.10
2019-02-22T23:29:16.067Z,95062.08
2019-02-22T23:31:42.738Z,95080.14
2019-02-22T23:34:09.400Z,95084.23
2019-02-22T23:36:36.118Z,95086.26
2019-02-22T23:39:02.783Z,95098.20
2019-02-22T23:41:29.439Z,95121.28
2019-02-22T23:43:56.126Z,95126.67
2019-02-22T23:46:22.793Z,95138.28
2019-02-22T23:48:49.528Z,95141.81
2019-02-22T23:51:16.204Z,95152.31
2019-02-22T23:53:42.885Z,95156.27
2019-02-22T23:56:09.626Z,95171.07
2019-02-22T23:58:36.338Z,95179.69
